PST,Max TemperatureF,Mean TemperatureF,Min TemperatureF,Max Dew PointF,MeanDew PointF,Min DewpointF,Max Humidity, Mean Humidity, Min Humidity, Max Sea Level PressureIn, Mean Sea Level PressureIn, Min Sea Level PressureIn, Max VisibilityMiles, Mean VisibilityMiles, Min VisibilityMiles, Max Wind SpeedMPH, Mean Wind SpeedMPH, Max Gust SpeedMPH,PrecipitationIn, CloudCover, Events, WindDirDegrees
2013-2-1,66,49,32,46,39,30,100,73,45,30.27,30.22,30.15,6,2,0,7,1,12,0.00,0,Fog,129
2013-2-2,62,52,42,48,45,41,96,76,56,30.30,30.24,30.22,5,2,1,8,2,9,0.00,0,,295
2013-2-3,63,53,42,48,45,41,100,78,56,30.26,30.20,30.13,6,2,0,7,3,,0.01,1,Fog,318
2013-2-4,65,50,35,48,42,34,100,74,48,30.22,30.14,30.06,7,2,0,7,1,9,0.00,1,Fog,93
2013-2-5,64,51,37,49,43,37,100,78,56,30.11,30.07,30.01,9,2,0,18,6,26,0.00,1,Fog,259
2013-2-6,54,43,32,44,37,31,100,86,71,30.23,30.16,30.11,7,3,0,14,3,16,0.00,2,Fog,250
2013-2-7,57,45,32,45,40,31,100,81,61,30.19,30.12,30.00,10,3,0,18,4,25,0.16,6,Fog-Rain,351
2013-2-8,51,44,37,45,39,35,100,81,61,30.00,29.97,29.92,10,8,0,16,5,28,0.05,6,Fog-Rain,288
2013-2-9,55,43,30,37,32,28,100,69,38,30.13,30.04,29.97,10,5,0,17,3,22,0.00,0,Fog,254
2013-2-10,57,43,28,36,32,26,100,69,38,30.14,30.09,30.05,10,9,6,7,3,,0.00,2,,114
2013-2-11,59,43,27,38,32,25,92,66,40,30.27,30.18,30.11,10,8,2,8,2,9,0.00,0,,25
2013-2-12,63,46,29,38,31,27,100,67,34,30.39,30.32,30.28,10,6,1,8,2,,0.00,0,,98
2013-2-13,66,48,29,39,33,28,92,62,31,30.36,30.30,30.22,10,6,0,8,1,10,0.00,0,Fog,350
2013-2-14,68,49,30,42,35,28,96,67,37,30.28,30.23,30.17,8,4,0,8,1,,0.00,0,Fog,267
2013-2-15,73,53,32,44,38,32,100,64,27,30.31,30.26,30.24,8,3,0,6,2,16,0.00,0,Fog,100
2013-2-16,73,53,33,45,38,32,93,62,31,30.26,30.17,30.05,10,5,0,7,2,10,0.00,0,Fog,18
2013-2-17,70,51,32,44,37,32,100,67,33,30.05,30.00,29.95,10,4,0,12,4,15,0.00,0,Fog,313
2013-2-18,68,50,32,46,38,30,100,66,32,30.04,29.99,29.89,10,6,0,22,5,25,0.00,0,Fog,125
2013-2-19,54,46,38,42,37,35,100,75,50,29.97,29.86,29.74,10,9,2,24,5,35,0.21,6,Rain,329
2013-2-20,51,43,34,39,36,33,100,80,60,30.09,29.94,29.82,10,10,7,14,4,,0.00,5,,350
2013-2-21,58,44,30,38,34,29,96,70,43,30.20,30.12,30.06,10,8,6,16,2,22,0.00,3,,57
2013-2-22,60,46,31,40,35,28,96,68,40,30.28,30.23,30.19,10,6,1,8,2,,0.00,0,,135
2013-2-23,62,48,33,41,35,27,100,68,36,30.26,30.17,30.10,10,6,0,20,7,29,0.00,1,Fog,342
2013-2-24,59,46,32,35,31,26,76,58,39,30.28,30.21,30.15,10,10,8,9,4,,0.00,0,,337
2013-2-25,64,47,30,38,33,28,92,61,30,30.30,30.23,30.15,10,8,2,9,3,13,0.00,0,,170
2013-2-26,64,48,31,40,36,30,100,70,39,30.23,30.17,30.13,10,8,0,10,4,,0.00,0,Fog,315
2013-2-27,68,49,30,42,35,30,100,66,32,30.36,30.30,30.23,10,6,0,8,2,,0.00,0,Fog,121
2013-2-28,71,53,34,40,36,32,92,60,27,30.45,30.40,30.37,10,7,2,15,2,0,0.00,0,,322